Time;durP1;ratioP1;P1;durP2;ratioP2;P2;SDS_P1;SDS_P2;PMS_P1;PMS_P2;Temp;Humidity;BMP_temperature;BMP_pressure;BME280_temperature;BME280_humidity;BME280_pressure;Samples;Min_cycle;Max_cycle;Signal;HPM_P1;HPM_P2
2022/02/12 00:00:24;;;;;;;2.97;1.98;;;;;;;;;;5112217;28;20024;-74
2022/02/12 00:02:52;;;;;;;3.15;1.80;;;;;;;;;;5112212;28;20397;-74
2022/02/12 00:05:18;;;;;;;2.80;2.00;;;;;;;;;;5113104;28;20069;-74
2022/02/12 00:07:45;;;;;;;3.95;2.30;;;;;;;;;;5116459;28;20057;-74
2022/02/12 00:10:11;;;;;;;3.13;2.10;;;;;;;;;;5116112;28;20023;-74
2022/02/12 00:12:37;;;;;;;4.07;2.10;;;;;;;;;;5115818;28;20028;-74
2022/02/12 00:15:04;;;;;;;2.50;1.80;;;;;;;;;;5116173;28;20364;-74
2022/02/12 00:17:30;;;;;;;3.60;2.35;;;;;;;;;;5115968;28;20485;-74
2022/02/12 00:19:56;;;;;;;2.35;1.80;;;;;;;;;;5115817;28;20019;-74
2022/02/12 00:22:23;;;;;;;4.18;2.10;;;;;;;;;;5115325;28;20031;-74
2022/02/12 00:24:49;;;;;;;2.78;1.80;;;;;;;;;;5116178;28;20432;-74
2022/02/12 00:27:15;;;;;;;3.70;1.85;;;;;;;;;;5115693;28;20053;-74
2022/02/12 00:29:41;;;;;;;2.63;2.05;;;;;;;;;;5115736;28;20443;-74
2022/02/12 00:32:07;;;;;;;2.17;1.67;;;;;;;;;;5114989;28;20084;-74
2022/02/12 00:34:33;;;;;;;2.15;1.58;;;;;;;;;;5115528;28;20016;-74
2022/02/12 00:36:59;;;;;;;2.78;1.70;;;;;;;;;;5127599;27;20020;-74
2022/02/12 00:39:25;;;;;;;2.22;1.58;;;;;;;;;;5136157;27;20019;-74
2022/02/12 00:41:51;;;;;;;2.85;1.85;;;;;;;;;;5129366;27;20023;-74
2022/02/12 00:44:17;;;;;;;2.40;1.67;;;;;;;;;;5115471;28;20107;-74
2022/02/12 00:46:43;;;;;;;2.03;1.55;;;;;;;;;;5115693;28;20395;-74
2022/02/12 00:49:10;;;;;;;2.00;1.65;;;;;;;;;;5115355;28;20426;-74
2022/02/12 00:51:36;;;;;;;3.28;1.40;;;;;;;;;;5114769;28;20156;-74
2022/02/12 00:54:02;;;;;;;2.45;1.77;;;;;;;;;;5115312;28;20019;-74
2022/02/12 00:56:28;;;;;;;2.40;1.80;;;;;;;;;;5115328;28;20031;-74
2022/02/12 00:58:56;;;;;;;2.45;1.40;;;;;;;;;;5115567;28;20631;-74
2022/02/12 01:01:22;;;;;;;2.00;1.70;;;;;;;;;;5114367;28;20049;-74
2022/02/12 01:03:48;;;;;;;2.03;1.40;;;;;;;;;;5115059;28;20050;-74
2022/02/12 01:06:14;;;;;;;1.65;1.30;;;;;;;;;;5115310;28;20028;-73
2022/02/12 01:08:40;;;;;;;2.85;1.45;;;;;;;;;;5122061;27;20027;-74
2022/02/12 01:11:06;;;;;;;1.67;1.38;;;;;;;;;;5135549;27;20028;-74
2022/02/12 01:13:33;;;;;;;1.52;1.20;;;;;;;;;;5134790;27;20031;-74
2022/02/12 01:15:59;;;;;;;1.67;1.30;;;;;;;;;;5135473;27;20063;-74
2022/02/12 01:18:25;;;;;;;2.28;1.40;;;;;;;;;;5125128;27;20084;-74
2022/02/12 01:20:51;;;;;;;1.33;1.08;;;;;;;;;;5115090;28;20034;-74
2022/02/12 01:23:17;;;;;;;1.67;1.20;;;;;;;;;;5096450;28;20106;-74
2022/02/12 01:25:44;;;;;;;1.58;1.25;;;;;;;;;;5114716;28;20019;-74
2022/02/12 01:28:10;;;;;;;1.83;1.50;;;;;;;;;;5114681;28;20478;-74
2022/02/12 01:30:36;;;;;;;1.77;1.30;;;;;;;;;;5114507;28;20027;-74
2022/02/12 01:33:02;;;;;;;1.67;1.20;;;;;;;;;;5114703;28;20512;-74
2022/02/12 01:35:28;;;;;;;2.17;1.17;;;;;;;;;;5114663;28;20026;-74
2022/02/12 01:37:55;;;;;;;2.60;1.20;;;;;;;;;;5114885;28;20057;-74
2022/02/12 01:40:24;;;;;;;1.88;1.20;;;;;;;;;;5116601;27;20027;-74
2022/02/12 01:42:50;;;;;;;2.20;1.30;;;;;;;;;;5120193;27;20023;-74
2022/02/12 01:45:17;;;;;;;1.55;0.90;;;;;;;;;;5096175;28;20085;-74
2022/02/12 01:47:43;;;;;;;1.70;1.27;;;;;;;;;;5114513;28;20023;-74
2022/02/12 01:50:09;;;;;;;2.13;1.40;;;;;;;;;;5096014;28;20032;-74
2022/02/12 01:52:37;;;;;;;1.73;1.10;;;;;;;;;;5114432;28;20030;-74
2022/02/12 01:55:04;;;;;;;2.35;1.23;;;;;;;;;;5114056;28;20027;-73
2022/02/12 01:57:31;;;;;;;1.60;1.05;;;;;;;;;;5114134;28;20126;-74
2022/02/12 01:59:57;;;;;;;1.10;0.80;;;;;;;;;;5114436;28;20612;-74
2022/02/12 02:02:24;;;;;;;1.88;1.25;;;;;;;;;;5114154;28;20030;-75
2022/02/12 02:04:50;;;;;;;1.80;1.45;;;;;;;;;;5095319;28;20059;-75
2022/02/12 02:07:16;;;;;;;2.10;1.02;;;;;;;;;;5113778;28;20077;-75
2022/02/12 02:09:43;;;;;;;2.20;0.93;;;;;;;;;;5114267;28;20035;-75
2022/02/12 02:12:10;;;;;;;1.65;1.25;;;;;;;;;;5094923;28;20118;-75
2022/02/12 02:14:40;;;;;;;1.85;1.15;;;;;;;;;;5132985;27;20031;-76
2022/02/12 02:17:07;;;;;;;1.75;1.02;;;;;;;;;;5134410;27;20062;-75
2022/02/12 02:19:33;;;;;;;1.40;1.00;;;;;;;;;;5115694;27;20047;-75
2022/02/12 02:22:00;;;;;;;1.10;0.90;;;;;;;;;;5113499;28;20111;-75
2022/02/12 02:24:26;;;;;;;1.60;0.80;;;;;;;;;;5113289;28;20024;-75
2022/02/12 02:27:03;;;;;;;1.75;0.90;;;;;;;;;;5113523;28;20069;-76
2022/02/12 02:29:29;;;;;;;1.50;1.10;;;;;;;;;;5113654;28;20038;-76
2022/02/12 02:31:56;;;;;;;1.48;1.00;;;;;;;;;;5112975;28;20031;-75
2022/02/12 02:34:22;;;;;;;1.52;0.93;;;;;;;;;;5113576;28;20496;-76
2022/02/12 02:36:51;;;;;;;1.25;0.95;;;;;;;;;;5113523;28;20024;-75
2022/02/12 02:39:17;;;;;;;1.48;1.20;;;;;;;;;;5114022;28;20031;-76
2022/02/12 02:41:43;;;;;;;1.55;0.80;;;;;;;;;;5113636;28;20011;-76
2022/02/12 02:44:10;;;;;;;1.90;1.02;;;;;;;;;;5113456;28;20448;-75
2022/02/12 02:46:36;;;;;;;1.33;0.90;;;;;;;;;;5131012;27;20405;-76
2022/02/12 02:49:02;;;;;;;1.45;0.98;;;;;;;;;;5133634;27;20034;-76
2022/02/12 02:56:57;;;;;;;1.30;0.80;;;;;;;;;;5133502;27;20030;-76
2022/02/12 02:59:23;;;;;;;1.33;0.95;;;;;;;;;;5133745;27;20398;-76
2022/02/12 03:01:52;;;;;;;1.50;1.00;;;;;;;;;;5114437;27;20030;-76
2022/02/12 03:04:19;;;;;;;1.83;1.08;;;;;;;;;;5133240;27;20047;-76
2022/02/12 03:06:46;;;;;;;1.30;1.02;;;;;;;;;;5133386;27;20015;-77
2022/02/12 03:09:12;;;;;;;1.58;1.00;;;;;;;;;;5112366;28;20043;-77
2022/02/12 03:11:38;;;;;;;1.00;0.77;;;;;;;;;;5112044;28;20036;-76
2022/02/12 03:14:04;;;;;;;2.47;1.02;;;;;;;;;;5112816;28;20070;-76
2022/02/12 03:16:31;;;;;;;0.93;0.82;;;;;;;;;;5094449;28;20024;-76
2022/02/12 03:18:57;;;;;;;2.13;0.70;;;;;;;;;;5118052;27;20462;-76
2022/02/12 03:21:23;;;;;;;1.65;0.70;;;;;;;;;;5112163;28;20410;-77
2022/02/12 03:23:49;;;;;;;1.02;0.68;;;;;;;;;;5094367;28;20028;-76
2022/02/12 03:26:15;;;;;;;0.88;0.70;;;;;;;;;;5112647;28;20538;-76
2022/02/12 03:28:43;;;;;;;1.20;0.95;;;;;;;;;;5112276;28;20027;-76
2022/02/12 03:31:09;;;;;;;0.73;0.52;;;;;;;;;;5112559;28;20027;-76
2022/02/12 03:33:35;;;;;;;1.13;0.88;;;;;;;;;;5093692;28;20406;-76
2022/02/12 03:36:02;;;;;;;1.50;0.90;;;;;;;;;;5094084;28;20031;-76
2022/02/12 03:38:29;;;;;;;1.85;0.88;;;;;;;;;;5112391;28;20027;-76
2022/02/12 03:41:02;;;;;;;0.90;0.80;;;;;;;;;;5114552;28;20029;-76
2022/02/12 03:43:30;;;;;;;2.28;0.60;;;;;;;;;;5114835;28;20027;-76
2022/02/12 03:45:57;;;;;;;1.35;0.90;;;;;;;;;;5116499;28;20397;-76
2022/02/12 03:48:23;;;;;;;1.02;0.50;;;;;;;;;;5116319;28;20023;-76
2022/02/12 03:50:52;;;;;;;2.28;1.00;;;;;;;;;;5116367;27;20038;-76
2022/02/12 03:53:18;;;;;;;1.75;0.88;;;;;;;;;;5116426;28;20032;-76
2022/02/12 03:55:44;;;;;;;1.05;0.60;;;;;;;;;;5116199;28;20525;-76
2022/02/12 03:58:12;;;;;;;1.40;0.75;;;;;;;;;;5116106;28;20058;-76
2022/02/12 04:00:41;;;;;;;1.05;0.73;;;;;;;;;;5116145;28;20024;-76
2022/02/12 04:03:08;;;;;;;0.95;0.68;;;;;;;;;;5097737;28;20059;-76
2022/02/12 04:05:34;;;;;;;1.35;0.90;;;;;;;;;;5097637;28;20019;-76
2022/02/12 04:08:01;;;;;;;1.20;0.70;;;;;;;;;;5120262;27;20019;-76
2022/02/12 04:10:27;;;;;;;1.50;0.70;;;;;;;;;;5137056;27;20026;-76
2022/02/12 04:12:54;;;;;;;0.98;0.77;;;;;;;;;;5136561;27;20115;-76
2022/02/12 04:15:21;;;;;;;2.03;0.88;;;;;;;;;;5136629;27;20060;-76
2022/02/12 04:17:47;;;;;;;1.17;0.63;;;;;;;;;;5132096;27;20015;-76
2022/02/12 04:20:14;;;;;;;1.45;0.90;;;;;;;;;;5116278;28;20490;-76
2022/02/12 04:22:43;;;;;;;0.80;0.50;;;;;;;;;;5128819;27;20436;-76
2022/02/12 04:25:13;;;;;;;0.70;0.70;;;;;;;;;;5136329;27;20410;-76
2022/02/12 04:27:39;;;;;;;1.10;0.80;;;;;;;;;;5136083;27;20458;-76
2022/02/12 04:30:06;;;;;;;0.95;0.60;;;;;;;;;;5136181;27;20035;-76
2022/02/12 04:32:32;;;;;;;1.33;0.88;;;;;;;;;;5117879;27;20038;-76
2022/02/12 04:35:02;;;;;;;1.08;0.60;;;;;;;;;;5136568;27;20031;-76
2022/02/12 04:37:28;;;;;;;0.82;0.70;;;;;;;;;;5136109;27;20026;-76
2022/02/12 04:39:54;;;;;;;0.60;0.60;;;;;;;;;;5136438;27;20019;-76
2022/02/12 04:42:20;;;;;;;0.80;0.73;;;;;;;;;;5125309;27;20221;-76
2022/02/12 04:44:51;;;;;;;0.63;0.55;;;;;;;;;;5115266;28;20024;-76
2022/02/12 04:47:17;;;;;;;0.88;0.52;;;;;;;;;;5096858;28;20027;-76
2022/02/12 04:49:46;;;;;;;1.00;0.70;;;;;;;;;;5115671;28;20024;-76
2022/02/12 04:52:13;;;;;;;2.67;0.70;;;;;;;;;;5095397;28;20041;-76
2022/02/12 04:54:39;;;;;;;0.90;0.63;;;;;;;;;;5125720;27;20019;-76
2022/02/12 04:57:06;;;;;;;0.90;0.73;;;;;;;;;;5117469;27;20023;-76
2022/02/12 04:59:32;;;;;;;0.98;0.60;;;;;;;;;;5135594;27;20019;-76
2022/02/12 05:01:58;;;;;;;0.98;0.70;;;;;;;;;;5135350;27;20031;-76
2022/02/12 05:04:24;;;;;;;1.13;0.63;;;;;;;;;;5135234;27;20047;-76
2022/02/12 05:06:50;;;;;;;2.50;0.90;;;;;;;;;;5135029;27;20031;-76
2022/02/12 05:09:16;;;;;;;2.13;1.10;;;;;;;;;;5115035;28;20500;-76
2022/02/12 05:11:43;;;;;;;1.20;0.73;;;;;;;;;;5114391;28;20039;-76
2022/02/12 05:14:10;;;;;;;0.90;0.60;;;;;;;;;;5096485;28;20015;-76
2022/02/12 05:16:36;;;;;;;0.70;0.70;;;;;;;;;;5114685;28;20058;-76
2022/02/12 05:19:02;;;;;;;0.98;0.77;;;;;;;;;;5114720;28;20020;-75
2022/02/12 05:21:28;;;;;;;0.75;0.60;;;;;;;;;;5114597;28;20046;-75
2022/02/12 05:23:54;;;;;;;1.05;0.50;;;;;;;;;;5114703;28;20027;-76
2022/02/12 05:26:20;;;;;;;0.80;0.60;;;;;;;;;;5121391;27;20081;-75
2022/02/12 05:28:46;;;;;;;1.40;0.60;;;;;;;;;;5135130;27;20026;-75
2022/02/12 05:31:13;;;;;;;1.35;0.52;;;;;;;;;;5116906;27;20038;-75
2022/02/12 05:33:39;;;;;;;1.05;0.65;;;;;;;;;;5134790;27;20019;-75
2022/02/12 05:36:09;;;;;;;1.38;0.52;;;;;;;;;;5116889;27;20398;-76
2022/02/12 05:38:42;;;;;;;0.88;0.65;;;;;;;;;;5134979;27;20015;-77
2022/02/12 05:41:12;;;;;;;1.60;0.70;;;;;;;;;;5116346;27;20125;-75
2022/02/12 05:43:38;;;;;;;0.70;0.70;;;;;;;;;;5096180;28;20028;-75
2022/02/12 05:46:06;;;;;;;1.00;0.70;;;;;;;;;;5114556;28;20038;-75
2022/02/12 05:48:33;;;;;;;1.73;0.68;;;;;;;;;;5114075;28;20058;-75
2022/02/12 05:51:00;;;;;;;0.52;0.50;;;;;;;;;;5114118;28;20036;-75
2022/02/12 05:53:26;;;;;;;0.93;0.50;;;;;;;;;;5113637;28;20016;-75
2022/02/12 05:55:52;;;;;;;0.80;0.60;;;;;;;;;;5114177;28;20024;-75
2022/02/12 05:58:18;;;;;;;2.08;0.70;;;;;;;;;;5118344;27;20478;-75
2022/02/12 06:00:45;;;;;;;0.98;0.65;;;;;;;;;;5134497;27;20027;-75
2022/02/12 06:03:11;;;;;;;1.98;0.68;;;;;;;;;;5134081;27;20409;-75
2022/02/12 06:05:37;;;;;;;1.10;0.63;;;;;;;;;;5134529;27;20038;-75
2022/02/12 06:08:05;;;;;;;2.85;1.00;;;;;;;;;;5105020;28;20024;-75
2022/02/12 06:10:34;;;;;;;1.23;0.55;;;;;;;;;;5113532;28;20118;-75
2022/02/12 06:13:00;;;;;;;2.15;0.63;;;;;;;;;;5114044;28;20111;-75
2022/02/12 06:15:26;;;;;;;1.38;0.68;;;;;;;;;;5113538;28;20019;-75
2022/02/12 06:17:53;;;;;;;2.80;0.60;;;;;;;;;;5113997;28;20089;-75
2022/02/12 06:20:19;;;;;;;1.58;0.75;;;;;;;;;;5113807;28;20035;-75
2022/02/12 06:22:46;;;;;;;0.75;0.60;;;;;;;;;;5113855;28;20031;-75
2022/02/12 06:25:12;;;;;;;1.30;0.57;;;;;;;;;;5113806;28;20031;-75
2022/02/12 06:27:38;;;;;;;1.75;0.77;;;;;;;;;;5113865;28;20034;-76
2022/02/12 06:30:05;;;;;;;0.85;0.60;;;;;;;;;;5095782;27;20126;-75
2022/02/12 06:32:31;;;;;;;0.73;0.40;;;;;;;;;;5134438;27;20493;-75
2022/02/12 06:35:01;;;;;;;0.65;0.60;;;;;;;;;;5133820;27;20047;-76
2022/02/12 06:37:28;;;;;;;0.75;0.60;;;;;;;;;;5133831;27;20493;-75
2022/02/12 06:39:54;;;;;;;0.85;0.60;;;;;;;;;;5133509;27;20098;-75
2022/02/12 06:42:20;;;;;;;2.17;0.70;;;;;;;;;;5123056;27;20023;-75
2022/02/12 06:44:46;;;;;;;1.15;0.73;;;;;;;;;;5094863;28;20027;-75
2022/02/12 06:47:12;;;;;;;1.88;0.65;;;;;;;;;;5113118;28;20023;-75
2022/02/12 06:49:38;;;;;;;1.13;0.60;;;;;;;;;;5112787;28;20023;-75
2022/02/12 06:52:05;;;;;;;0.75;0.55;;;;;;;;;;5112811;28;20030;-75
2022/02/12 06:54:31;;;;;;;0.40;0.40;;;;;;;;;;5113160;28;20024;-75
2022/02/12 06:56:58;;;;;;;1.00;0.63;;;;;;;;;;5113004;28;20022;-78
2022/02/12 06:59:24;;;;;;;1.23;0.57;;;;;;;;;;5112734;28;20027;-77
2022/02/12 07:01:50;;;;;;;0.65;0.43;;;;;;;;;;5112406;28;20020;-76
2022/02/12 07:04:16;;;;;;;1.13;0.60;;;;;;;;;;5111181;27;20049;-77
2022/02/12 07:06:42;;;;;;;0.80;0.60;;;;;;;;;;5133700;27;20023;-77
2022/02/12 07:09:11;;;;;;;1.23;0.70;;;;;;;;;;5112923;28;20027;-76
2022/02/12 07:11:37;;;;;;;0.90;0.70;;;;;;;;;;5093971;28;20027;-76
2022/02/12 07:14:03;;;;;;;1.45;0.52;;;;;;;;;;5094372;28;20402;-76
2022/02/12 07:16:30;;;;;;;0.88;0.68;;;;;;;;;;5093607;28;20020;-76
2022/02/12 07:18:56;;;;;;;0.70;0.60;;;;;;;;;;5113212;28;20035;-76
2022/02/12 07:21:22;;;;;;;2.15;0.65;;;;;;;;;;5112166;28;20077;-76
2022/02/12 07:23:49;;;;;;;1.50;0.82;;;;;;;;;;5112652;28;20032;-76
2022/02/12 07:26:15;;;;;;;1.25;0.75;;;;;;;;;;5112976;28;20034;-77
2022/02/12 07:28:42;;;;;;;2.60;0.95;;;;;;;;;;5113034;28;20489;-76
2022/02/12 07:31:08;;;;;;;1.38;0.50;;;;;;;;;;5112424;28;20055;-76
2022/02/12 07:33:34;;;;;;;1.23;0.60;;;;;;;;;;5093964;28;20063;-76
2022/02/12 07:36:00;;;;;;;1.00;0.60;;;;;;;;;;5125876;28;20022;-76
2022/02/12 07:38:26;;;;;;;0.82;0.63;;;;;;;;;;5133213;28;20050;-77
2022/02/12 07:40:53;;;;;;;1.15;0.70;;;;;;;;;;5133067;28;20020;-76
2022/02/12 07:43:19;;;;;;;1.65;0.70;;;;;;;;;;5114345;28;20461;-76
2022/02/12 07:45:45;;;;;;;1.60;0.70;;;;;;;;;;5112858;28;20107;-76
2022/02/12 07:48:11;;;;;;;1.90;0.82;;;;;;;;;;5094230;28;20020;-76
2022/02/12 07:50:37;;;;;;;1.00;0.60;;;;;;;;;;5112275;28;20020;-76
2022/02/12 07:53:04;;;;;;;2.00;0.80;;;;;;;;;;5112394;28;20062;-76
2022/02/12 07:55:30;;;;;;;1.35;0.80;;;;;;;;;;5112466;28;20031;-76
2022/02/12 07:57:57;;;;;;;1.25;0.80;;;;;;;;;;5112342;28;20039;-77
2022/02/12 08:00:23;;;;;;;1.63;0.95;;;;;;;;;;5112367;28;20020;-76
2022/02/12 08:02:50;;;;;;;2.05;0.90;;;;;;;;;;5111973;28;20031;-76
2022/02/12 08:05:17;;;;;;;0.90;0.70;;;;;;;;;;5112834;28;20554;-76
2022/02/12 08:07:45;;;;;;;1.70;0.80;;;;;;;;;;5113041;28;20398;-76
2022/02/12 08:12:59;;;;;;;1.33;0.85;;;;;;;;;;5112558;28;20047;-77
2022/02/12 08:15:26;;;;;;;1.50;0.80;;;;;;;;;;5112164;28;20023;-76
2022/02/12 08:17:52;;;;;;;1.17;0.70;;;;;;;;;;5111959;28;20052;-76
2022/02/12 08:20:18;;;;;;;1.00;0.80;;;;;;;;;;5111928;28;20020;-77
2022/02/12 08:22:44;;;;;;;1.55;0.88;;;;;;;;;;5112485;28;20391;-76
2022/02/12 08:25:11;;;;;;;0.68;0.55;;;;;;;;;;5112535;28;20027;-77
2022/02/12 08:27:37;;;;;;;1.38;0.95;;;;;;;;;;5096811;28;20028;-75
2022/02/12 08:30:05;;;;;;;1.50;0.82;;;;;;;;;;5116425;28;20020;-76
2022/02/12 08:32:31;;;;;;;1.63;0.80;;;;;;;;;;5115812;28;20406;-75
2022/02/12 08:34:57;;;;;;;0.90;0.63;;;;;;;;;;5115764;28;20024;-75
2022/02/12 08:37:23;;;;;;;1.88;0.82;;;;;;;;;;5115666;28;20027;-77
2022/02/12 08:39:49;;;;;;;1.48;0.80;;;;;;;;;;5123749;27;20071;-76
2022/02/12 08:42:18;;;;;;;1.92;0.90;;;;;;;;;;5126083;27;20036;-76
2022/02/12 08:44:44;;;;;;;1.17;0.77;;;;;;;;;;5115526;28;20047;-76
2022/02/12 08:47:11;;;;;;;3.63;0.88;;;;;;;;;;5115568;28;20078;-76
2022/02/12 08:49:38;;;;;;;2.13;0.80;;;;;;;;;;5097298;28;20236;-76
2022/02/12 08:52:04;;;;;;;1.45;0.80;;;;;;;;;;5096549;28;20032;-76
2022/02/12 08:54:30;;;;;;;1.30;0.85;;;;;;;;;;5115302;28;20097;-76
2022/02/12 08:56:56;;;;;;;2.20;0.88;;;;;;;;;;5115749;28;20498;-76
2022/02/12 08:59:23;;;;;;;2.13;0.73;;;;;;;;;;5097001;28;20027;-76
2022/02/12 09:01:49;;;;;;;1.00;0.80;;;;;;;;;;5114480;28;20031;-76
2022/02/12 09:04:15;;;;;;;1.30;0.60;;;;;;;;;;5115128;28;20047;-76
2022/02/12 09:06:42;;;;;;;3.35;1.23;;;;;;;;;;5115770;28;20024;-76
2022/02/12 09:09:09;;;;;;;1.13;0.70;;;;;;;;;;5115591;28;20209;-76
2022/02/12 09:11:35;;;;;;;2.22;0.88;;;;;;;;;;5118672;27;20027;-75
2022/02/12 09:14:01;;;;;;;1.05;0.57;;;;;;;;;;5117105;27;20027;-75
2022/02/12 09:16:27;;;;;;;2.47;0.80;;;;;;;;;;5117430;27;20019;-75
2022/02/12 09:18:53;;;;;;;1.70;0.80;;;;;;;;;;5122190;27;20023;-75
2022/02/12 09:21:21;;;;;;;1.52;0.90;;;;;;;;;;5114363;28;20114;-75
2022/02/12 09:23:47;;;;;;;2.40;1.13;;;;;;;;;;5114558;28;20043;-75
2022/02/12 09:26:13;;;;;;;1.50;0.70;;;;;;;;;;5096430;28;20028;-75
2022/02/12 09:28:40;;;;;;;1.60;0.82;;;;;;;;;;5096457;28;20097;-75
2022/02/12 09:31:06;;;;;;;3.25;1.38;;;;;;;;;;5114603;28;20023;-75
2022/02/12 09:33:32;;;;;;;1.55;1.02;;;;;;;;;;5114347;28;20069;-75
2022/02/12 09:35:58;;;;;;;2.67;0.85;;;;;;;;;;5096609;28;20026;-75
2022/02/12 09:38:24;;;;;;;2.28;1.05;;;;;;;;;;5114234;28;20106;-75
2022/02/12 09:40:51;;;;;;;1.35;0.60;;;;;;;;;;5114806;28;20047;-75
2022/02/12 09:43:20;;;;;;;2.35;1.00;;;;;;;;;;5114144;28;20032;-75
2022/02/12 09:46:04;;;;;;;1.48;1.00;;;;;;;;;;5134966;27;20019;-75
2022/02/12 09:48:34;;;;;;;2.15;0.90;;;;;;;;;;5135172;27;20504;-75
2022/02/12 09:51:00;;;;;;;1.85;0.93;;;;;;;;;;5135733;27;20481;-76
2022/02/12 09:53:28;;;;;;;1.67;0.70;;;;;;;;;;5134643;27;20120;-76
2022/02/12 09:55:54;;;;;;;4.28;1.20;;;;;;;;;;5116988;27;20023;-76
2022/02/12 09:58:20;;;;;;;2.13;0.98;;;;;;;;;;5134800;27;20148;-75
2022/02/12 10:00:46;;;;;;;1.45;0.73;;;;;;;;;;5134795;27;20023;-74
2022/02/12 10:03:12;;;;;;;1.38;0.90;;;;;;;;;;5134328;27;20445;-74
2022/02/12 10:05:39;;;;;;;3.05;0.98;;;;;;;;;;5134982;27;20490;-76
2022/02/12 10:08:07;;;;;;;1.58;1.00;;;;;;;;;;5123975;27;20040;-77
2022/02/12 10:10:33;;;;;;;1.73;0.80;;;;;;;;;;5114039;28;20027;-77
2022/02/12 10:13:12;;;;;;;1.88;0.88;;;;;;;;;;5113814;28;20065;-75
2022/02/12 10:15:38;;;;;;;1.30;0.82;;;;;;;;;;5096546;27;20031;-74
2022/02/12 10:18:04;;;;;;;1.67;1.10;;;;;;;;;;5128229;27;20055;-74
2022/02/12 10:20:33;;;;;;;2.67;0.70;;;;;;;;;;5114274;28;20061;-74
2022/02/12 10:23:06;;;;;;;1.30;0.75;;;;;;;;;;5113785;28;20474;-74
2022/02/12 10:25:32;;;;;;;2.22;1.00;;;;;;;;;;5095562;28;20030;-75
2022/02/12 10:27:58;;;;;;;2.03;0.90;;;;;;;;;;5114121;28;20028;-75
2022/02/12 10:30:34;;;;;;;2.50;1.08;;;;;;;;;;5114062;28;20102;-75
2022/02/12 10:33:01;;;;;;;1.38;1.23;;;;;;;;;;5114114;28;20076;-75
2022/02/12 10:35:28;;;;;;;2.45;0.88;;;;;;;;;;5114230;28;20034;-75
2022/02/12 10:38:02;;;;;;;1.15;0.80;;;;;;;;;;5114125;28;20024;-75
2022/02/12 10:40:29;;;;;;;2.38;0.85;;;;;;;;;;5095519;28;20397;-75
2022/02/12 10:42:55;;;;;;;1.00;0.70;;;;;;;;;;5113479;28;20040;-75
2022/02/12 10:45:23;;;;;;;3.55;1.15;;;;;;;;;;5113088;28;20089;-75
2022/02/12 10:47:50;;;;;;;2.72;0.73;;;;;;;;;;5113739;28;20031;-75
2022/02/12 10:50:16;;;;;;;1.67;1.00;;;;;;;;;;5093180;28;20028;-76
2022/02/12 10:52:47;;;;;;;1.48;0.95;;;;;;;;;;5074943;28;20051;-75
2022/02/12 10:55:32;;;;;;;2.00;0.98;;;;;;;;;;5074439;28;20127;-75
2022/02/12 10:57:59;;;;;;;1.67;0.90;;;;;;;;;;5093025;28;20020;-75
2022/02/12 11:00:27;;;;;;;1.33;0.90;;;;;;;;;;5093229;28;20067;-75
2022/02/12 11:02:54;;;;;;;2.03;1.05;;;;;;;;;;5092500;28;20398;-76
2022/02/12 11:05:22;;;;;;;2.45;0.88;;;;;;;;;;5093177;28;20032;-75
2022/02/12 11:07:49;;;;;;;5.15;1.42;;;;;;;;;;5101891;28;20450;-75
2022/02/12 11:10:15;;;;;;;2.42;1.15;;;;;;;;;;5114413;28;20522;-75
2022/02/12 11:12:42;;;;;;;1.35;1.00;;;;;;;;;;5113343;28;20487;-74
2022/02/12 11:15:08;;;;;;;2.22;1.10;;;;;;;;;;5113740;28;20363;-75
2022/02/12 11:17:35;;;;;;;2.10;0.98;;;;;;;;;;5113777;28;20023;-75
2022/02/12 11:20:01;;;;;;;2.00;1.05;;;;;;;;;;5114109;28;20019;-75
2022/02/12 11:22:28;;;;;;;1.08;0.88;;;;;;;;;;5113327;28;20027;-75
2022/02/12 11:24:54;;;;;;;2.08;1.10;;;;;;;;;;5114491;28;20367;-75
2022/02/12 11:27:29;;;;;;;2.53;1.08;;;;;;;;;;5113806;28;20028;-75
2022/02/12 11:29:56;;;;;;;1.38;1.00;;;;;;;;;;5114130;28;20483;-75
2022/02/12 11:32:23;;;;;;;2.15;1.08;;;;;;;;;;5113528;28;20106;-75
2022/02/12 11:35:09;;;;;;;1.05;0.90;;;;;;;;;;5113485;28;20077;-75
2022/02/12 11:37:38;;;;;;;3.63;1.15;;;;;;;;;;5114109;28;20016;-75
2022/02/12 11:40:13;;;;;;;4.05;1.15;;;;;;;;;;5113893;28;20043;-75
2022/02/12 11:42:43;;;;;;;1.73;0.88;;;;;;;;;;5113908;28;20023;-75
2022/02/12 11:45:19;;;;;;;2.85;1.10;;;;;;;;;;5113704;28;20036;-75
2022/02/12 11:48:04;;;;;;;2.55;1.30;;;;;;;;;;5114034;28;20148;-75
2022/02/12 11:50:43;;;;;;;2.78;1.50;;;;;;;;;;5114281;28;20449;-75
2022/02/12 11:53:29;;;;;;;3.20;1.05;;;;;;;;;;5094945;28;20429;-75
2022/02/12 11:55:55;;;;;;;2.03;1.10;;;;;;;;;;5114417;28;20027;-75
2022/02/12 11:58:22;;;;;;;2.45;1.30;;;;;;;;;;5114717;28;20104;-75
2022/02/12 12:00:48;;;;;;;1.98;1.20;;;;;;;;;;5114438;28;20051;-75
2022/02/12 12:03:14;;;;;;;2.80;1.50;;;;;;;;;;5117682;28;20506;-75
2022/02/12 12:05:40;;;;;;;1.90;1.33;;;;;;;;;;5119237;28;20585;-75
2022/02/12 12:08:08;;;;;;;1.98;1.10;;;;;;;;;;5119050;28;20069;-75
2022/02/12 12:10:35;;;;;;;3.58;1.30;;;;;;;;;;5117982;28;20052;-75
2022/02/12 12:13:25;;;;;;;2.75;1.52;;;;;;;;;;5118583;28;20487;-75
2022/02/12 12:15:55;;;;;;;2.25;1.20;;;;;;;;;;5118940;28;20073;-75
2022/02/12 12:18:21;;;;;;;2.30;1.50;;;;;;;;;;5100196;28;20016;-75
2022/02/12 12:20:47;;;;;;;1.75;1.33;;;;;;;;;;5118534;28;20410;-75
2022/02/12 12:23:15;;;;;;;2.55;1.20;;;;;;;;;;5118524;28;20429;-75
2022/02/12 12:25:51;;;;;;;2.33;1.30;;;;;;;;;;5128552;27;20110;-75
2022/02/12 12:28:24;;;;;;;1.67;1.38;;;;;;;;;;5120195;27;20023;-75
2022/02/12 12:30:50;;;;;;;;;;;;;;;;;;5120519;27;20090;-75
2022/02/12 12:33:17;;;;;;;2.22;1.35;;;;;;;;;;5137499;27;19961;-75
2022/02/12 12:35:50;;;;;;;2.45;1.27;;;;;;;;;;5137156;27;20022;-75
2022/02/12 12:38:16;;;;;;;3.20;1.35;;;;;;;;;;5118312;27;20027;-75
2022/02/12 12:40:43;;;;;;;2.03;1.30;;;;;;;;;;5118600;27;20061;-75
2022/02/12 12:43:09;;;;;;;2.60;1.30;;;;;;;;;;5120001;27;20123;-75
2022/02/12 12:45:39;;;;;;;2.50;1.33;;;;;;;;;;5116637;28;20039;-75
2022/02/12 12:48:06;;;;;;;2.83;1.27;;;;;;;;;;5116861;28;20034;-75
2022/02/12 12:50:36;;;;;;;2.53;1.20;;;;;;;;;;5098776;28;20026;-76
2022/02/12 12:53:06;;;;;;;2.80;1.50;;;;;;;;;;5117041;28;20023;-76
2022/02/12 12:55:32;;;;;;;2.65;1.58;;;;;;;;;;5116577;28;20385;-75
2022/02/12 12:57:59;;;;;;;2.95;1.88;;;;;;;;;;5128584;27;20567;-75
2022/02/12 13:00:26;;;;;;;2.25;1.50;;;;;;;;;;5137614;27;20023;-75
2022/02/12 13:02:55;;;;;;;3.40;1.50;;;;;;;;;;5137674;27;20027;-76
2022/02/12 13:05:26;;;;;;;2.70;1.48;;;;;;;;;;5119826;27;20518;-76
2022/02/12 13:07:53;;;;;;;1.30;1.20;;;;;;;;;;5129409;27;20024;-76
2022/02/12 13:10:23;;;;;;;2.47;1.50;;;;;;;;;;5118135;28;20118;-76
2022/02/12 13:12:49;;;;;;;1.63;1.17;;;;;;;;;;5116386;28;20044;-76
2022/02/12 13:15:18;;;;;;;2.38;1.50;;;;;;;;;;5118710;28;20055;-75
2022/02/12 13:17:45;;;;;;;2.65;1.50;;;;;;;;;;5118188;28;20016;-75
2022/02/12 13:20:13;;;;;;;2.60;1.48;;;;;;;;;;5117499;28;20110;-75
2022/02/12 13:22:41;;;;;;;2.35;1.33;;;;;;;;;;5117780;28;20030;-75
2022/02/12 13:25:16;;;;;;;2.67;1.48;;;;;;;;;;5098675;28;20085;-75
2022/02/12 13:27:43;;;;;;;5.43;1.88;;;;;;;;;;5117554;28;20069;-75
2022/02/12 13:30:10;;;;;;;3.63;1.67;;;;;;;;;;5117925;27;20453;-75
2022/02/12 13:32:37;;;;;;;3.47;1.63;;;;;;;;;;5117847;28;20541;-75
2022/02/12 13:35:07;;;;;;;2.97;1.60;;;;;;;;;;5117151;28;20031;-75
2022/02/12 13:37:40;;;;;;;2.90;1.60;;;;;;;;;;5116910;28;20023;-75
2022/02/12 13:40:07;;;;;;;2.85;1.40;;;;;;;;;;5098056;28;20024;-75
2022/02/12 13:42:33;;;;;;;4.30;1.70;;;;;;;;;;5116244;28;20028;-75
2022/02/12 13:45:00;;;;;;;3.92;2.20;;;;;;;;;;5116533;28;20514;-75
2022/02/12 13:47:26;;;;;;;2.70;1.73;;;;;;;;;;5117045;28;20490;-75
2022/02/12 13:49:54;;;;;;;3.85;1.70;;;;;;;;;;5116881;28;20122;-75
2022/02/12 13:52:21;;;;;;;2.38;1.65;;;;;;;;;;5116151;28;20024;-75
2022/02/12 13:55:00;;;;;;;3.45;1.77;;;;;;;;;;5117086;28;20386;-75
2022/02/12 13:57:26;;;;;;;2.13;1.55;;;;;;;;;;5098060;28;20020;-75
2022/02/12 13:59:52;;;;;;;4.90;1.92;;;;;;;;;;5117005;28;20031;-75
2022/02/12 14:02:18;;;;;;;3.15;1.88;;;;;;;;;;5126047;27;20134;-75
2022/02/12 14:04:44;;;;;;;3.38;1.83;;;;;;;;;;5120355;27;20134;-75
2022/02/12 14:07:10;;;;;;;2.15;1.60;;;;;;;;;;5116594;28;20047;-76
2022/02/12 14:09:37;;;;;;;5.32;1.63;;;;;;;;;;5116146;28;20034;-75
2022/02/12 14:12:03;;;;;;;4.00;1.70;;;;;;;;;;5115635;28;20031;-75
2022/02/12 14:14:29;;;;;;;4.85;1.92;;;;;;;;;;5115482;28;20019;-75
2022/02/12 14:16:55;;;;;;;3.10;1.60;;;;;;;;;;5115449;28;20024;-75
2022/02/12 14:19:21;;;;;;;3.80;1.90;;;;;;;;;;5099302;28;20103;-75
2022/02/12 14:21:47;;;;;;;5.22;2.03;;;;;;;;;;5077030;28;20026;-75
2022/02/12 14:24:13;;;;;;;4.25;1.95;;;;;;;;;;5095640;28;20487;-75
2022/02/12 14:26:41;;;;;;;5.30;1.98;;;;;;;;;;5095692;28;20054;-75
2022/02/12 14:29:07;;;;;;;5.00;1.98;;;;;;;;;;5095820;28;20114;-75
2022/02/12 14:31:34;;;;;;;3.75;1.95;;;;;;;;;;5095338;28;20051;-75
2022/02/12 14:34:00;;;;;;;3.95;2.00;;;;;;;;;;5095426;28;20077;-75
2022/02/12 14:36:26;;;;;;;6.35;2.00;;;;;;;;;;5095416;28;20023;-75
2022/02/12 14:38:53;;;;;;;5.28;2.00;;;;;;;;;;5095350;28;20399;-75
2022/02/12 14:41:19;;;;;;;4.72;2.25;;;;;;;;;;5095064;28;20031;-76
2022/02/12 14:43:45;;;;;;;4.13;1.90;;;;;;;;;;5095749;28;20035;-76
2022/02/12 14:46:11;;;;;;;3.65;1.98;;;;;;;;;;5094892;28;20024;-77
2022/02/12 14:48:38;;;;;;;4.65;2.03;;;;;;;;;;5076862;28;20035;-76
2022/02/12 14:51:04;;;;;;;5.28;2.00;;;;;;;;;;5076608;28;20016;-77